Time;durP1;ratioP1;P1;durP2;ratioP2;P2;SDS_P1;SDS_P2;PMS_P1;PMS_P2;Temp;Humidity;BMP_temperature;BMP_pressure;BME280_temperature;BME280_humidity;BME280_pressure;Samples;Min_cycle;Max_cycle;Signal;HPM_P1;HPM_P2
2023/10/23 09:35:36;;;;;;;;;0.33;0.33;;;;;14.31;67.94;100539.38;2036478;27;2733622;-72
2023/10/23 09:36:51;;;;;;;;;1.83;1.83;;;;;14.49;66.87;100536.69;2067775;27;2735666;-72
2023/10/23 09:38:11;;;;;;;;;2.00;2.00;;;;;14.70;65.90;100542.63;2045322;27;2746117;-72
2023/10/23 09:39:22;;;;;;;;;3.33;2.00;;;;;14.87;65.54;100545.31;2018371;27;2752357;-73
2023/10/23 09:40:34;;;;;;;;;2.25;1.00;;;;;15.03;65.38;100538.25;2062234;27;2723206;-73
2023/10/23 09:41:48;;;;;;;;;2.83;2.00;;;;;15.17;64.63;100528.69;2067558;27;2745103;-73
2023/10/23 09:43:01;;;;;;;;;4.00;2.00;;;;;15.28;64.44;100536.88;2017447;27;2754486;-73
2023/10/23 09:44:13;;;;;;;;;4.00;2.00;;;;;15.39;64.21;100533.63;2040973;27;2752366;-73
2023/10/23 09:45:29;;;;;;;;;2.17;1.50;;;;;15.49;64.05;100525.16;2068360;27;2728399;-73
2023/10/23 09:46:42;;;;;;;;;3.17;2.17;;;;;15.58;63.91;100526.44;2044302;27;2740882;-72
2023/10/23 09:47:59;;;;;;;;;2.00;2.00;;;;;15.65;63.49;100522.50;2045079;27;2746103;-72
2023/10/23 09:49:12;;;;;;;;;2.00;2.00;;;;;15.72;63.31;100523.84;2037753;27;2735146;-73
2023/10/23 09:50:27;;;;;;;;;3.67;1.33;;;;;15.77;63.13;100517.41;2043568;27;2741959;-73
2023/10/23 09:51:41;;;;;;;;;2.00;2.00;;;;;15.83;62.97;100520.53;2016315;27;2750633;-73
2023/10/23 09:52:56;;;;;;;;;7.00;2.00;;;;;15.85;63.00;100507.22;2049236;27;2751317;-72
2023/10/23 09:54:19;;;;;;;;;3.33;2.00;;;;;15.89;62.75;100511.38;2070926;27;2738846;-72
2023/10/23 09:55:35;;;;;;;;;1.33;1.33;;;;;15.93;62.81;100512.03;2045101;27;2724220;-72
2023/10/23 09:56:50;;;;;;;;;4.50;4.00;;;;;15.94;63.10;100498.72;2044271;27;2738921;-72
2023/10/23 09:58:08;;;;;;;;;2.00;2.00;;;;;15.96;63.24;100493.31;2038359;27;2743996;-72
2023/10/23 09:59:27;;;;;;;;;2.67;1.83;;;;;15.98;62.56;100497.56;2043778;27;2733607;-72
2023/10/23 10:00:38;;;;;;;;;2.00;2.00;;;;;15.98;62.84;100494.94;2019289;27;2751741;-72
2023/10/23 10:01:59;;;;;;;;;3.17;2.00;;;;;16.00;63.12;100483.41;2067416;27;2739837;-73
2023/10/23 10:03:17;;;;;;;;;4.33;2.50;;;;;16.02;62.80;100486.78;2043897;27;2742993;-72
2023/10/23 10:04:43;;;;;;;;;6.67;3.00;;;;;16.02;62.76;100484.16;2037826;27;2741931;-73
2023/10/23 10:06:09;;;;;;;;;2.00;2.00;;;;;16.04;62.76;100482.25;2018163;27;2748221;-72
2023/10/23 10:07:29;;;;;;;;;3.33;2.00;;;;;16.05;62.72;100476.88;2040041;27;2750299;-72
2023/10/23 10:08:50;;;;;;;;;2.17;1.00;;;;;16.07;62.65;100477.66;2066422;27;2720093;-72
2023/10/23 10:10:05;;;;;;;;;1.50;1.50;;;;;16.08;62.54;100473.19;2044123;27;2737195;-72
2023/10/23 10:11:19;;;;;;;;;1.83;1.33;;;;;16.08;62.62;100466.09;2044439;27;2729436;-73
2023/10/23 10:12:37;;;;;;;;;1.83;1.67;;;;;16.08;62.81;100467.88;2041269;27;2741927;-72
2023/10/23 10:13:51;;;;;;;;;1.00;1.00;;;;;16.07;62.71;100461.75;2038729;27;2730463;-73
2023/10/23 10:15:10;;;;;;;;;2.17;2.17;;;;;16.07;62.63;100463.56;2039470;27;2751310;-72
2023/10/23 10:16:24;;;;;;;;;2.33;1.50;;;;;16.07;63.30;100463.56;2037284;27;2725269;-72
2023/10/23 10:17:36;;;;;;;;;5.00;3.33;;;;;16.06;63.07;100459.19;2017719;27;2748242;-72
2023/10/23 10:18:47;;;;;;;;;3.00;3.00;;;;;16.05;62.87;100454.84;2036637;27;2740917;-72
2023/10/23 10:20:02;;;;;;;;;5.00;2.60;;;;;16.04;62.65;100455.75;2062893;27;2730487;-73
2023/10/23 10:21:22;;;;;;;;;3.83;3.00;;;;;16.03;62.61;100449.59;2067696;27;2745106;-72
2023/10/23 10:22:39;;;;;;;;;3.00;3.00;;;;;16.05;63.06;100457.50;2044702;27;2731591;-72
2023/10/23 10:23:51;;;;;;;;;8.33;4.00;;;;;16.06;63.11;100453.88;2010790;27;2750264;-72
2023/10/23 10:25:05;;;;;;;;;6.00;5.00;;;;;16.09;63.29;100451.06;2035606;27;2753398;-72
2023/10/23 10:26:19;;;;;;;;;8.00;5.00;;;;;16.09;62.76;100448.41;2060290;27;2734660;-72
2023/10/23 10:27:33;;;;;;;;;6.50;3.50;;;;;16.13;63.23;100455.22;2042316;27;2749236;-73
2023/10/23 10:28:52;;;;;;;;;2.67;2.67;;;;;16.15;62.99;100450.66;2009203;27;2736177;-73
2023/10/23 10:30:07;;;;;;;;;4.67;3.33;;;;;16.16;63.02;100447.06;2033290;27;2748197;-72
2023/10/23 10:31:17;;;;;;;;;4.00;4.00;;;;;16.17;62.94;100446.09;2041740;27;2754461;-72
2023/10/23 10:32:28;;;;;;;;;4.00;3.33;;;;;16.19;63.10;100449.53;2060945;27;2745064;-72
2023/10/23 10:33:42;;;;;;;;;3.00;3.00;;;;;16.21;62.97;100446.78;2059955;27;2738275;-73
2023/10/23 10:34:59;;;;;;;;;3.00;3.00;;;;;16.23;63.04;100444.03;2041918;27;2753406;-72
2023/10/23 10:36:16;;;;;;;;;4.33;2.67;;;;;16.24;63.12;100446.59;2040545;27;2740890;-73
2023/10/23 10:37:30;;;;;;;;;3.67;2.00;;;;;16.25;63.26;100439.50;2013600;27;2748174;-73
2023/10/23 10:38:41;;;;;;;;;5.00;2.00;;;;;16.26;63.21;100441.19;2037060;27;2750321;-72
2023/10/23 10:40:04;;;;;;;;;2.60;2.20;;;;;16.26;63.28;100439.41;2060379;27;2750260;-73
2023/10/23 10:41:18;;;;;;;;;2.00;2.00;;;;;16.28;63.11;100444.59;2018271;27;2740908;-73
2023/10/23 10:42:29;;;;;;;;;2.00;2.00;;;;;16.30;63.03;100440.06;2036386;27;2752394;-72
2023/10/23 10:43:45;;;;;;;;;2.00;2.00;;;;;16.30;62.56;100442.69;2067793;27;2744061;-73
2023/10/23 10:45:14;;;;;;;;;4.33;2.33;;;;;16.30;63.01;100440.06;2043777;27;2748730;-72
2023/10/23 10:46:28;;;;;;;;;3.17;1.00;;;;;16.30;62.93;100440.06;2041673;27;2735703;-72
2023/10/23 10:47:52;;;;;;;;;2.33;2.00;;;;;16.29;62.81;100436.56;2009924;27;2750272;-72
2023/10/23 10:49:05;;;;;;;;;1.67;1.67;;;;;16.29;62.67;100444.53;2052330;27;2740345;-72
2023/10/23 10:50:33;;;;;;;;;3.67;1.50;;;;;16.28;62.90;100439.28;2036485;27;2718059;-73
2023/10/23 10:51:44;;;;;;;;;2.67;2.00;;;;;16.26;63.06;100443.84;2011513;27;2752352;-72
2023/10/23 10:53:00;;;;;;;;;1.00;1.00;;;;;16.25;62.91;100443.00;2060365;27;2733652;-73
2023/10/23 10:54:14;;;;;;;;;1.00;1.00;;;;;16.25;62.87;100445.63;2035912;27;2729457;-73
2023/10/23 10:55:24;;;;;;;;;2.00;2.00;;;;;16.24;62.55;100441.31;2012607;27;2746122;-73
2023/10/23 10:56:35;;;;;;;;;3.00;2.00;;;;;16.24;62.76;100448.41;2060453;27;2742011;-72
2023/10/23 10:57:48;;;;;;;;;3.17;2.00;;;;;16.24;62.62;100436.00;2060505;27;2744050;-73
2023/10/23 10:59:04;;;;;;;;;1.33;1.33;;;;;16.27;62.95;100446.38;2039570;27;2731562;-73
2023/10/23 11:00:15;;;;;;;;;3.00;2.00;;;;;16.26;62.92;100436.75;2010791;27;2748194;-73
2023/10/23 11:01:28;;;;;;;;;2.83;2.00;;;;;16.26;63.09;100430.59;2061569;27;2748723;-72
2023/10/23 11:02:39;;;;;;;;;4.00;2.00;;;;;16.25;63.13;100437.69;2009803;27;2754488;-73
2023/10/23 11:03:52;;;;;;;;;1.00;1.00;;;;;16.24;63.20;100427.19;2061956;27;2737767;-72
2023/10/23 11:05:12;;;;;;;;;1.83;1.33;;;;;16.23;62.84;100426.31;2035916;27;2731516;-72
2023/10/23 11:06:25;;;;;;;;;1.83;1.83;;;;;16.21;63.14;100422.94;2033560;27;2737272;-73
2023/10/23 11:07:36;;;;;;;;;3.00;3.00;;;;;16.22;63.06;100418.47;2011722;27;2754656;-72
2023/10/23 11:08:47;;;;;;;;;2.67;2.67;;;;;16.24;63.20;100420.09;2041940;27;2748201;-73
2023/10/23 11:09:58;;;;;;;;;3.00;3.00;;;;;16.25;63.10;100407.69;2060642;27;2744053;-72
2023/10/23 11:11:12;;;;;;;;;2.67;1.17;;;;;16.25;62.98;100413.00;2037788;27;2725250;-73
2023/10/23 11:12:25;;;;;;;;;3.83;1.67;;;;;16.24;63.14;100405.97;2037825;27;2727357;-73
2023/10/23 11:13:35;;;;;;;;;3.00;2.00;;;;;16.24;63.19;100408.63;2005108;27;2753507;-72
2023/10/23 11:14:49;;;;;;;;;2.00;2.00;;;;;16.23;63.41;100405.13;2054158;27;2739860;-73
2023/10/23 11:16:04;;;;;;;;;4.00;3.00;;;;;16.20;63.38;100400.84;2050095;27;2749236;-72
2023/10/23 11:17:15;;;;;;;;;2.00;2.00;;;;;16.20;63.32;100394.69;2005408;27;2744035;-72
2023/10/23 11:18:28;;;;;;;;;2.80;2.80;;;;;16.20;63.41;100394.69;2060591;27;2745167;-72
2023/10/23 11:19:41;;;;;;;;;2.67;1.67;;;;;16.19;63.42;100393.88;2013578;27;2747226;-72
2023/10/23 11:21:01;;;;;;;;;2.50;2.50;;;;;16.18;63.29;100386.84;2061182;27;2737774;-72
2023/10/23 11:22:17;;;;;;;;;4.33;2.67;;;;;16.16;63.96;100394.06;2038085;27;2750268;-72
2023/10/23 11:23:29;;;;;;;;;4.00;1.33;;;;;16.15;63.67;100389.69;2018065;27;2741936;-73
2023/10/23 11:24:43;;;;;;;;;3.50;1.50;;;;;16.15;64.09;100389.69;2053026;27;2729418;-73
2023/10/23 11:25:56;;;;;;;;;4.33;3.00;;;;;16.13;64.30;100380.97;2026445;28;2740454;-73
2023/10/23 11:27:10;;;;;;;;;2.00;2.00;;;;;16.14;64.01;100385.34;2034184;27;2743007;-72
2023/10/23 11:28:23;;;;;;;;;2.00;2.00;;;;;16.12;64.08;100381.94;2032167;27;2729453;-73
2023/10/23 11:29:47;;;;;;;;;2.33;1.83;;;;;16.09;64.33;100384.78;2039347;27;2735912;-72
2023/10/23 11:31:00;;;;;;;;;2.33;2.00;;;;;16.07;64.41;100379.59;2029870;27;2746113;-73
2023/10/23 11:32:17;;;;;;;;;2.67;2.33;;;;;16.08;64.47;100380.41;2037840;27;2736734;-72
2023/10/23 11:33:27;;;;;;;;;3.33;3.00;;;;;16.07;64.84;100378.72;2011993;27;2744013;-73
2023/10/23 11:34:38;;;;;;;;;6.33;2.00;;;;;16.05;64.71;100381.44;2051214;27;2746110;-72
2023/10/23 11:35:52;;;;;;;;;1.50;1.50;;;;;16.04;64.88;100378.88;2060251;27;2731508;-72
2023/10/23 11:37:07;;;;;;;;;3.33;2.17;;;;;16.02;64.88;100370.16;2061290;27;2746086;-72
2023/10/23 11:38:24;;;;;;;;;2.33;2.33;;;;;15.99;64.75;100373.84;2010724;27;2754525;-72
2023/10/23 11:39:36;;;;;;;;;5.00;2.00;;;;;15.98;64.97;100373.00;2035913;27;2747210;-73
2023/10/23 11:40:47;;;;;;;;;3.67;3.67;;;;;15.97;65.27;100376.63;2035723;27;2752384;-72
2023/10/23 11:41:59;;;;;;;;;4.00;2.00;;;;;15.95;65.27;100370.53;2055216;27;2744495;-73
2023/10/23 11:43:13;;;;;;;;;5.33;2.00;;;;;15.96;65.17;100376.69;2008665;27;2750264;-72
2023/10/23 11:44:27;;;;;;;;;2.50;1.67;;;;;15.97;65.47;100367.81;2059942;27;2726331;-73
2023/10/23 11:45:41;;;;;;;;;3.67;2.33;;;;;15.97;65.56;100365.16;2034159;27;2750246;-73
2023/10/23 11:46:58;;;;;;;;;3.00;3.00;;;;;15.97;65.30;100368.66;2038100;27;2735686;-73
2023/10/23 11:48:14;;;;;;;;;3.00;3.00;;;;;15.97;65.49;100363.38;2036891;27;2753769;-72
2023/10/23 11:49:28;;;;;;;;;3.50;3.00;;;;;15.97;65.81;100357.22;2024515;27;2749263;-72
2023/10/23 11:50:40;;;;;;;;;3.67;2.00;;;;;15.98;65.61;100361.53;2011612;27;2744027;-72
2023/10/23 11:51:52;;;;;;;;;2.00;2.00;;;;;15.97;65.80;100365.16;2035909;27;2750368;-73
2023/10/23 11:53:05;;;;;;;;;3.00;2.00;;;;;15.96;65.91;100363.44;2032245;27;2752331;-73
2023/10/23 11:54:17;;;;;;;;;4.00;4.00;;;;;15.95;65.84;100362.59;2035484;27;2746202;-72
2023/10/23 11:55:31;;;;;;;;;2.33;2.33;;;;;15.94;66.22;100358.25;2059999;27;2735714;-73
2023/10/23 11:56:45;;;;;;;;;3.00;3.00;;;;;15.95;65.87;100356.44;2036307;27;2735737;-72
2023/10/23 11:57:56;;;;;;;;;4.00;4.00;;;;;15.96;65.50;100358.13;2006949;27;2748217;-73
2023/10/23 11:59:17;;;;;;;;;1.00;1.00;;;;;16.00;65.30;100356.16;2062387;27;2725768;-73
2023/10/23 12:00:33;;;;;;;;;3.00;3.00;;;;;16.05;65.50;100349.63;2044010;27;2741922;-73
2023/10/23 12:01:48;;;;;;;;;1.83;1.83;;;;;16.09;65.23;100355.63;2040339;27;2734658;-72
2023/10/23 12:02:58;;;;;;;;;3.00;3.00;;;;;16.14;65.56;100352.66;2005033;27;2737789;-72
2023/10/23 12:04:09;;;;;;;;;3.00;3.00;;;;;16.19;65.00;100348.78;2058955;27;2732570;-72
2023/10/23 12:05:23;;;;;;;;;4.00;2.00;;;;;16.26;65.06;100351.03;2037771;27;2748241;-73
2023/10/23 12:06:35;;;;;;;;;3.00;3.00;;;;;16.33;65.17;100343.53;2010233;27;2753443;-72
2023/10/23 12:07:52;;;;;;;;;4.00;2.00;;;;;16.37;64.69;100342.41;2033455;27;2750317;-72
2023/10/23 12:09:06;;;;;;;;;2.50;2.00;;;;;16.40;64.60;100332.44;2060819;27;2746115;-73
2023/10/23 12:10:17;;;;;;;;;4.67;2.67;;;;;16.44;64.80;100332.25;2004322;27;2748193;-72
2023/10/23 12:11:29;;;;;;;;;4.00;2.00;;;;;16.42;64.78;100338.50;2043029;27;2752348;-73
2023/10/23 12:12:41;;;;;;;;;3.00;2.67;;;;;16.46;64.69;100325.91;2029106;27;2754499;-72
2023/10/23 12:13:51;;;;;;;;;4.33;3.00;;;;;16.48;64.46;100316.03;2035816;27;2739900;-73
2023/10/23 12:15:03;;;;;;;;;2.67;2.33;;;;;16.50;64.31;100313.28;2050361;27;2746192;-73
2023/10/23 12:16:17;;;;;;;;;3.50;3.50;;;;;16.53;64.21;100315.72;2061770;27;2740386;-73
2023/10/23 12:17:30;;;;;;;;;2.67;2.67;;;;;16.56;63.96;100312.88;2040780;27;2740925;-73
2023/10/23 12:18:41;;;;;;;;;4.00;4.00;;;;;16.61;64.11;100308.13;2010205;27;2748180;-72
2023/10/23 12:19:54;;;;;;;;;1.33;0.83;;;;;16.65;63.60;100304.31;2061659;27;2725274;-73
2023/10/23 12:21:08;;;;;;;;;2.67;2.67;;;;;16.70;63.53;100301.38;2037752;27;2752388;-72
2023/10/23 12:22:21;;;;;;;;;2.00;1.00;;;;;16.73;63.85;100300.31;2032929;27;2729423;-72
2023/10/23 12:23:34;;;;;;;;;4.17;3.00;;;;;16.78;63.57;100295.56;2037949;27;2737777;-72
2023/10/23 12:24:44;;;;;;;;;5.67;4.00;;;;;16.82;63.38;100296.19;2011833;27;2749291;-72
2023/10/23 12:25:56;;;;;;;;;3.00;3.00;;;;;16.86;63.46;100295.91;2056755;27;2738847;-73
2023/10/23 12:27:09;;;;;;;;;2.33;2.33;;;;;16.90;62.89;100285.06;2055044;27;2748202;-72
2023/10/23 12:28:22;;;;;;;;;4.00;2.67;;;;;16.93;63.40;100282.19;2034577;27;2736795;-72
2023/10/23 12:29:36;;;;;;;;;3.50;2.50;;;;;16.93;63.10;100274.25;2030229;27;2741936;-73
2023/10/23 12:30:49;;;;;;;;;4.00;2.83;;;;;16.97;63.37;100275.72;2037330;27;2741955;-73
2023/10/23 12:32:03;;;;;;;;;2.67;2.67;;;;;16.99;63.09;100265.84;2033174;27;2742974;-73
2023/10/23 12:33:17;;;;;;;;;3.83;3.00;;;;;17.00;63.42;100270.22;2033739;27;2737791;-73
2023/10/23 12:34:30;;;;;;;;;2.33;2.00;;;;;17.01;63.27;100261.31;2004748;27;2750256;-71
2023/10/23 12:35:40;;;;;;;;;2.00;2.00;;;;;16.99;62.89;100258.75;2033468;27;2749267;-72
2023/10/23 12:36:51;;;;;;;;;4.00;3.00;;;;;17.01;63.25;100250.69;2059618;27;2739927;-73
2023/10/23 12:38:05;;;;;;;;;4.50;3.83;;;;;17.05;63.09;100259.28;2060767;27;2745452;-72
2023/10/23 12:39:18;;;;;;;;;4.17;4.17;;;;;17.08;62.92;100251.97;2036917;27;2743028;-73
2023/10/23 12:40:31;;;;;;;;;3.50;2.67;;;;;17.07;62.89;100255.56;2044845;27;2731563;-73
2023/10/23 12:41:44;;;;;;;;;3.50;3.50;;;;;17.09;62.73;100253.66;2035866;27;2744098;-73
2023/10/23 12:42:55;;;;;;;;;4.00;4.00;;;;;17.13;62.63;100254.31;2010654;27;2750363;-73
2023/10/23 12:44:06;;;;;;;;;3.00;2.00;;;;;17.15;62.54;100249.75;2059826;27;2751331;-73
2023/10/23 12:45:19;;;;;;;;;4.50;4.00;;;;;17.17;62.46;100249.66;2038923;27;2737797;-73
2023/10/23 12:46:32;;;;;;;;;3.50;2.17;;;;;17.20;62.60;100252.09;2037959;27;2748179;-73
2023/10/23 12:47:46;;;;;;;;;4.17;4.17;;;;;17.23;62.52;100253.69;2037548;27;2747205;-73
2023/10/23 12:48:59;;;;;;;;;6.00;4.50;;;;;17.24;62.38;100258.03;2039598;27;2734649;-73
2023/10/23 12:50:09;;;;;;;;;3.00;2.67;;;;;17.21;62.38;100259.94;2011249;27;2736162;-73
2023/10/23 12:51:21;;;;;;;;;3.50;3.00;;;;;17.18;62.34;100259.31;2053529;27;2741939;-72
2023/10/23 12:52:34;;;;;;;;;4.17;4.17;;;;;17.18;62.89;100264.63;2056985;27;2732567;-72
2023/10/23 12:53:45;;;;;;;;;3.00;3.00;;;;;17.20;62.48;100257.41;2011409;27;2741948;-72
2023/10/23 12:54:56;;;;;;;;;3.00;3.00;;;;;17.24;62.63;100253.56;2060935;27;2729460;-72
2023/10/23 12:56:06;;;;;;;;;4.00;2.00;;;;;17.27;62.70;100239.25;2029331;27;2752506;-73
2023/10/23 12:57:17;;;;;;;;;4.00;4.00;;;;;17.28;62.33;100236.50;2053709;27;2741999;-72
2023/10/23 12:58:28;;;;;;;;;4.00;4.00;;;;;17.26;62.49;100233.06;2010178;27;3470071;-73
2023/10/23 12:59:39;;;;;;;;;2.00;2.00;;;;;17.26;62.13;100229.59;2059643;27;2737808;-73
2023/10/23 13:00:50;;;;;;;;;5.00;3.00;;;;;17.26;62.81;100227.75;2011930;27;2752399;-72
2023/10/23 13:02:04;;;;;;;;;4.83;3.00;;;;;17.24;62.83;100227.03;2059215;27;2740914;-73
2023/10/23 13:03:14;;;;;;;;;2.00;2.00;;;;;17.25;61.92;100226.06;2010136;27;2748272;-72
2023/10/23 13:04:25;;;;;;;;;5.00;4.67;;;;;17.27;62.14;100229.47;2048967;27;2750352;-72
2023/10/23 13:05:37;;;;;;;;;2.25;2.25;;;;;17.28;62.54;100228.53;2059507;27;2738830;-73
2023/10/23 13:06:52;;;;;;;;;2.17;2.17;;;;;17.31;62.54;100230.09;2054584;27;2746172;-73
2023/10/23 13:08:05;;;;;;;;;4.17;2.33;;;;;17.34;62.16;100227.22;2033183;27;2740909;-72
2023/10/23 13:09:15;;;;;;;;;5.33;3.67;;;;;17.34;62.23;100231.69;2005727;27;2750358;-73
2023/10/23 13:10:26;;;;;;;;;3.00;3.00;;;;;17.31;61.82;100236.25;2059870;27;2740938;-73
2023/10/23 13:11:40;;;;;;;;;4.00;2.17;;;;;17.35;61.92;100228.09;2060536;27;2730522;-72
2023/10/23 13:12:53;;;;;;;;;3.00;3.00;;;;;17.36;62.05;100225.31;2036654;27;2745061;-72
2023/10/23 13:14:04;;;;;;;;;3.33;3.33;;;;;17.40;61.83;100223.31;2011543;27;2741940;-73
2023/10/23 13:15:18;;;;;;;;;2.67;2.67;;;;;17.44;61.77;100219.47;2057039;27;2730517;-72
2023/10/23 13:16:28;;;;;;;;;2.00;2.00;;;;;17.48;61.51;100212.97;2010905;27;2750303;-73
2023/10/23 13:17:39;;;;;;;;;3.33;3.33;;;;;17.51;61.72;100210.09;2049350;27;2752431;-73
2023/10/23 13:18:52;;;;;;;;;2.50;2.50;;;;;17.56;61.89;100203.63;2059516;27;2746118;-72
2023/10/23 13:20:06;;;;;;;;;4.67;4.00;;;;;17.57;61.72;100202.66;2034857;27;2749200;-73
2023/10/23 13:21:20;;;;;;;;;2.67;2.00;;;;;17.54;61.67;100201.91;2059533;27;2737881;-72
2023/10/23 13:22:34;;;;;;;;;1.50;1.00;;;;;17.53;61.76;100202.88;2034414;27;2731532;-72
2023/10/23 13:23:47;;;;;;;;;3.83;3.00;;;;;17.57;61.47;100208.81;2035730;27;2734728;-73
2023/10/23 13:25:03;;;;;;;;;3.00;2.33;;;;;17.59;62.16;100204.25;2036627;27;2726385;-73
2023/10/23 13:26:19;;;;;;;;;1.67;1.67;;;;;17.61;61.06;100209.44;2034143;27;2739879;-73
2023/10/23 13:27:32;;;;;;;;;2.00;2.00;;;;;17.65;61.08;100214.44;2035814;27;2748205;-73
2023/10/23 13:28:45;;;;;;;;;2.17;2.17;;;;;17.69;61.41;100207.09;2036455;27;2732030;-73
2023/10/23 13:29:58;;;;;;;;;3.50;3.00;;;;;17.68;61.32;100205.38;2030033;27;2733629;-72
2023/10/23 13:31:09;;;;;;;;;3.00;2.33;;;;;17.67;62.06;100198.38;2010252;27;2750307;-72
2023/10/23 13:32:20;;;;;;;;;2.75;2.75;;;;;17.68;62.00;100199.25;2059895;27;2733613;-72
2023/10/23 13:33:31;;;;;;;;;5.00;4.00;;;;;17.64;62.17;100204.75;2032676;27;2750277;-72
2023/10/23 13:34:42;;;;;;;;;4.00;4.00;;;;;17.61;62.33;100197.00;2049356;27;2752351;-72
2023/10/23 13:35:53;;;;;;;;;1.67;1.67;;;;;17.57;62.00;100200.84;2059723;27;2737757;-72
2023/10/23 13:37:06;;;;;;;;;3.83;3.67;;;;;17.55;62.13;100194.81;2037087;27;2740897;-72
2023/10/23 13:38:19;;;;;;;;;3.00;3.00;;;;;17.51;62.37;100202.13;2039305;27;2727368;-72
2023/10/23 13:39:32;;;;;;;;;2.17;2.17;;;;;17.49;61.81;100195.22;2033863;27;2741935;-72
2023/10/23 13:40:46;;;;;;;;;3.50;2.00;;;;;17.50;61.86;100197.78;2037774;27;2736720;-72
2023/10/23 13:41:56;;;;;;;;;2.33;2.33;;;;;17.51;62.03;100188.84;2010192;27;3451361;-72
2023/10/23 13:43:07;;;;;;;;;2.33;1.00;;;;;17.52;61.78;100190.56;2059579;27;2733996;-72
2023/10/23 13:44:21;;;;;;;;;3.50;3.00;;;;;17.54;62.06;100188.63;2060641;27;2735704;-73
2023/10/23 13:45:31;;;;;;;;;3.67;3.67;;;;;17.51;61.87;100186.19;2006894;27;2750764;-72
2023/10/23 13:46:42;;;;;;;;;1.67;1.67;;;;;17.51;62.07;100196.81;2055935;27;2737761;-73
2023/10/23 13:47:55;;;;;;;;;1.00;1.00;;;;;17.52;61.48;100184.38;2038304;27;2727347;-73
2023/10/23 13:49:09;;;;;;;;;2.00;2.00;;;;;17.54;61.83;100182.47;2037554;27;2743780;-73
2023/10/23 13:50:22;;;;;;;;;2.00;2.00;;;;;17.54;62.19;100177.16;2035431;27;2739833;-72
2023/10/23 13:51:32;;;;;;;;;2.00;2.00;;;;;17.50;62.20;100179.19;2004164;27;2750256;-73
2023/10/23 13:52:43;;;;;;;;;3.67;2.00;;;;;17.49;62.40;100173.97;2059758;27;2737769;-73
2023/10/23 13:53:56;;;;;;;;;1.00;1.00;;;;;17.46;62.21;100175.03;2060562;27;2729438;-72
2023/10/23 13:55:11;;;;;;;;;3.50;1.50;;;;;17.42;62.65;100174.44;2034812;27;2729516;-72
2023/10/23 13:56:24;;;;;;;;;2.00;2.00;;;;;17.39;62.79;100173.78;2032432;27;2742993;-73
2023/10/23 13:57:34;;;;;;;;;3.67;3.00;;;;;17.37;62.39;100175.69;2002325;27;2735730;-73
2023/10/23 13:58:49;;;;;;;;;1.67;1.67;;;;;17.38;62.66;100177.41;2057708;27;2738028;-73
2023/10/23 13:59:59;;;;;;;;;3.00;3.00;;;;;17.39;62.36;100174.63;2003795;27;2736790;-72
2023/10/23 14:01:10;;;;;;;;;3.33;3.00;;;;;17.39;62.38;100174.63;2059466;27;2740352;-72
2023/10/23 14:02:23;;;;;;;;;0.17;0.00;;;;;17.38;62.37;100167.63;2036915;27;2722799;-72
2023/10/23 14:03:37;;;;;;;;;3.00;2.00;;;;;17.41;62.33;100164.75;2035172;27;2742973;-72
2023/10/23 14:04:51;;;;;;;;;3.00;3.00;;;;;17.43;62.53;100160.16;2036018;27;2723675;-73
2023/10/23 14:06:04;;;;;;;;;4.00;2.83;;;;;17.43;62.30;100159.34;2036776;27;2754443;-72
2023/10/23 14:07:14;;;;;;;;;4.00;3.67;;;;;17.41;62.53;100150.59;2009786;27;2750287;-73
2023/10/23 14:08:25;;;;;;;;;4.00;3.67;;;;;17.39;62.39;100157.84;2051477;27;2741946;-72
2023/10/23 14:09:37;;;;;;;;;3.75;3.00;;;;;17.37;62.85;100154.44;2058279;27;2733638;-73
2023/10/23 14:10:48;;;;;;;;;3.00;3.00;;;;;17.35;62.44;100159.03;2002311;27;2742014;-73
2023/10/23 14:11:59;;;;;;;;;2.00;2.00;;;;;17.37;62.58;100154.44;2058202;27;2727385;-72
2023/10/23 14:13:12;;;;;;;;;3.00;3.00;;;;;17.36;62.79;100161.56;2037626;27;2748216;-72
2023/10/23 14:14:25;;;;;;;;;2.67;2.67;;;;;17.34;62.47;100160.81;2039149;27;2728414;-73
2023/10/23 14:15:38;;;;;;;;;4.67;4.17;;;;;17.31;63.15;100158.38;2037434;27;2736059;-73
2023/10/23 14:16:49;;;;;;;;;4.00;3.00;;;;;17.27;63.12;100159.56;2005835;27;2747174;-72
2023/10/23 14:18:02;;;;;;;;;2.00;2.00;;;;;17.20;62.69;100162.66;2053805;27;2739846;-72
2023/10/23 14:19:15;;;;;;;;;2.00;2.00;;;;;17.15;63.04;100156.84;2035186;27;2740422;-72
2023/10/23 14:20:28;;;;;;;;;3.17;3.00;;;;;17.13;62.82;100160.53;2034915;27;2734709;-73
2023/10/23 14:21:39;;;;;;;;;3.00;2.00;;;;;17.10;62.71;100156.28;2010819;27;2750304;-72
2023/10/23 14:22:50;;;;;;;;;2.00;2.00;;;;;17.11;62.73;100155.31;2058472;27;2746109;-72
2023/10/23 14:24:01;;;;;;;;;3.00;3.00;;;;;17.11;63.33;100150.00;2036276;27;2741997;-72
2023/10/23 14:25:12;;;;;;;;;1.00;1.00;;;;;17.07;62.90;100156.47;2058916;27;2728418;-72
2023/10/23 14:26:26;;;;;;;;;1.00;1.00;;;;;17.05;62.83;100153.94;2062546;27;2733622;-73
2023/10/23 14:27:37;;;;;;;;;2.00;2.00;;;;;17.07;62.78;100154.69;2012775;27;2746102;-72
2023/10/23 14:28:47;;;;;;;;;3.33;3.00;;;;;17.05;62.89;100150.44;2035708;27;2754545;-72
2023/10/23 14:29:58;;;;;;;;;4.00;2.33;;;;;17.02;63.42;100151.50;2059711;27;2738799;-72
2023/10/23 14:31:11;;;;;;;;;2.00;2.00;;;;;16.99;63.61;100149.03;2062036;27;2750332;-72
2023/10/23 14:32:24;;;;;;;;;2.17;1.83;;;;;16.93;63.10;100154.78;2039465;27;2730466;-72
2023/10/23 14:33:35;;;;;;;;;2.00;2.00;;;;;16.90;63.45;100161.16;2017402;27;2750288;-72
2023/10/23 14:34:46;;;;;;;;;4.00;1.33;;;;;16.88;63.91;100152.47;2056202;27;2745148;-72
2023/10/23 14:35:59;;;;;;;;;3.00;3.00;;;;;16.85;63.93;100150.00;2057652;27;2721131;-73
2023/10/23 14:37:12;;;;;;;;;1.00;1.00;;;;;16.83;64.11;100151.94;2036149;27;2726368;-73
2023/10/23 14:38:26;;;;;;;;;1.33;1.33;;;;;16.77;64.25;100147.88;2038183;27;2739916;-73
2023/10/23 14:39:39;;;;;;;;;1.00;1.00;;;;;16.74;64.10;100151.59;2034723;27;2725316;-72
2023/10/23 14:40:58;;;;;;;;;3.83;2.00;;;;;16.76;64.12;100154.16;2033313;27;2745499;-72
2023/10/23 14:42:08;;;;;;;;;4.00;4.00;;;;;16.77;64.78;100147.88;2009376;27;2752370;-72
2023/10/23 14:43:20;;;;;;;;;5.00;3.67;;;;;16.77;64.62;100153.19;2051667;27;2745075;-73
2023/10/23 14:44:34;;;;;;;;;2.00;2.00;;;;;16.76;64.51;100155.03;2035775;27;2751302;-72
2023/10/23 14:45:51;;;;;;;;;1.00;1.00;;;;;16.75;65.05;100155.97;2062496;27;2720399;-72
2023/10/23 14:47:04;;;;;;;;;4.33;3.00;;;;;16.74;64.66;100161.38;2042492;27;2736762;-72
2023/10/23 14:48:23;;;;;;;;;1.50;1.17;;;;;16.70;64.65;100157.22;2040736;27;2724624;-72
2023/10/23 14:49:36;;;;;;;;;3.17;2.00;;;;;16.66;65.06;100151.28;2033284;27;2722137;-72
2023/10/23 14:50:53;;;;;;;;;3.83;3.83;;;;;16.64;65.52;100153.22;2035616;27;2744107;-72
2023/10/23 14:52:03;;;;;;;;;2.67;2.67;;;;;16.61;65.49;100148.97;2008668;27;2741943;-72
2023/10/23 14:53:14;;;;;;;;;2.00;2.00;;;;;16.57;65.31;100152.75;2039763;27;2746313;-73
2023/10/23 14:54:26;;;;;;;;;3.00;2.00;;;;;16.56;64.97;100145.75;2055802;27;2727355;-72
2023/10/23 14:55:37;;;;;;;;;4.00;2.00;;;;;16.52;65.16;100146.91;2028974;27;2750318;-72
2023/10/23 14:56:49;;;;;;;;;3.67;2.00;;;;;16.49;65.00;100147.13;2027835;27;2754501;-73
2023/10/23 14:58:03;;;;;;;;;3.00;3.00;;;;;16.46;65.45;100150.00;2060940;27;2740939;-72
2023/10/23 14:59:16;;;;;;;;;2.33;2.00;;;;;16.44;65.38;100143.94;2038156;27;2739852;-72
2023/10/23 15:00:31;;;;;;;;;3.67;3.17;;;;;16.42;65.42;100147.53;2036806;27;2730773;-72
2023/10/23 15:01:45;;;;;;;;;1.67;1.67;;;;;16.41;65.46;100153.81;2037767;27;2739840;-73
2023/10/23 15:02:55;;;;;;;;;5.00;3.00;;;;;16.40;65.88;100146.78;2010282;27;2752345;-72
2023/10/23 15:04:06;;;;;;;;;3.67;3.67;;;;;16.39;65.71;100144.25;2055092;27;2744011;-72
2023/10/23 15:05:17;;;;;;;;;4.33;4.33;;;;;16.38;65.45;100143.41;2007390;27;2748246;-72
2023/10/23 15:06:29;;;;;;;;;5.50;4.00;;;;;16.39;65.77;100145.09;2058648;27;2744029;-72
2023/10/23 15:07:39;;;;;;;;;3.67;3.00;;;;;16.38;65.79;100143.41;2032347;27;2746126;-73
2023/10/23 15:08:52;;;;;;;;;4.33;3.67;;;;;16.38;66.25;100139.88;2045554;27;2753502;-72